Terminal Aerodrome Forecast
Issued by NWS Chicago, IL

Home | Current Version | Previous Version | Text Only | Print | Product List | Glossary Off
Versions: 1 2 3 4 5 6 7 8 9 10 11 12 13 14 15 16 17 18 19 20 21 22 23 24 25 26 27 28

000
FTUS43 KLOT 210539
TAFRFD
TAF
KRFD 210539Z 2106/2206 18004KT 5SM BR BKN024
     FM211000 VRB03KT 4SM BR OVC012
     FM211400 12005KT 2SM -DZ BR OVC005
      TEMPO 2116/2120 1/2SM -DZ FG OVC003=

USA.gov is the U.S. government's official web portal to all federal, state and local government web resources and services.